sensor_id;sensor_type;location;lat;lon;timestamp;pressure;altitude;pressure_sealevel;temperature;humidity
54503;BME280;40411;50.090;21.954;2022-09-20T00:03:34;151496.72;;;9.73;100.00
54503;BME280;40411;50.090;21.954;2022-09-20T00:06:01;151494.16;;;9.72;100.00
54503;BME280;40411;50.090;21.954;2022-09-20T00:08:28;151509.50;;;9.78;100.00
54503;BME280;40411;50.090;21.954;2022-09-20T00:11:08;151453.22;;;9.56;100.00
54503;BME280;40411;50.090;21.954;2022-09-20T00:13:36;151473.69;;;9.64;100.00
54503;BME280;40411;50.090;21.954;2022-09-20T00:16:08;151494.16;;;9.72;100.00
54503;BME280;40411;50.090;21.954;2022-09-20T00:18:35;151478.78;;;9.66;100.00
54503;BME280;40411;50.090;21.954;2022-09-20T00:21:01;151489.03;;;9.70;100.00
54503;BME280;40411;50.090;21.954;2022-09-20T00:23:27;151465.97;;;9.61;100.00
54503;BME280;40411;50.090;21.954;2022-09-20T00:25:56;151469.84;;;9.62;100.00
54503;BME280;40411;50.090;21.954;2022-09-20T00:28:23;151459.63;;;9.58;100.00
54503;BME280;40411;50.090;21.954;2022-09-20T00:30:50;151440.44;;;9.51;100.00
54503;BME280;40411;50.090;21.954;2022-09-20T00:33:16;151414.84;;;9.40;100.00
54503;BME280;40411;50.090;21.954;2022-09-20T00:35:43;151442.97;;;9.52;100.00
54503;BME280;40411;50.090;21.954;2022-09-20T00:38:10;151450.66;;;9.55;100.00
54503;BME280;40411;50.090;21.954;2022-09-20T00:40:42;151418.72;;;9.42;100.00
54503;BME280;40411;50.090;21.954;2022-09-20T00:43:13;151471.13;;;9.63;100.00
54503;BME280;40411;50.090;21.954;2022-09-20T00:45:42;151455.78;;;9.57;100.00
54503;BME280;40411;50.090;21.954;2022-09-20T00:50:40;151463.44;;;9.60;100.00
54503;BME280;40411;50.090;21.954;2022-09-20T00:53:27;151458.31;;;9.58;100.00
54503;BME280;40411;50.090;21.954;2022-09-20T00:56:00;151477.50;;;9.66;100.00
54503;BME280;40411;50.090;21.954;2022-09-20T00:58:29;151455.78;;;9.57;100.00
54503;BME280;40411;50.090;21.954;2022-09-20T01:00:58;151474.97;;;9.65;100.00
54503;BME280;40411;50.090;21.954;2022-09-20T01:03:27;151459.63;;;9.58;100.00
54503;BME280;40411;50.090;21.954;2022-09-20T01:05:54;151450.66;;;9.55;100.00
54503;BME280;40411;50.090;21.954;2022-09-20T01:08:21;151494.16;;;9.72;100.00
54503;BME280;40411;50.090;21.954;2022-09-20T01:10:50;151510.78;;;9.79;100.00
54503;BME280;40411;50.090;21.954;2022-09-20T01:13:16;151508.22;;;9.78;100.00
54503;BME280;40411;50.090;21.954;2022-09-20T01:15:44;151477.50;;;9.66;100.00
54503;BME280;40411;50.090;21.954;2022-09-20T01:18:12;151460.91;;;9.59;100.00
54503;BME280;40411;50.090;21.954;2022-09-20T01:20:41;151464.72;;;9.60;100.00
54503;BME280;40411;50.090;21.954;2022-09-20T01:23:43;151474.97;;;9.65;100.00
54503;BME280;40411;50.090;21.954;2022-09-20T01:29:44;151487.75;;;9.70;100.00
54503;BME280;40411;50.090;21.954;2022-09-20T01:31:53;151505.66;;;9.77;100.00
54503;BME280;40411;50.090;21.954;2022-09-20T01:34:34;151495.44;;;9.73;100.00
54503;BME280;40411;50.090;21.954;2022-09-20T01:37:07;151482.63;;;9.68;100.00
54503;BME280;40411;50.090;21.954;2022-09-20T01:40:00;151504.38;;;9.76;100.00
54503;BME280;40411;50.090;21.954;2022-09-20T01:43:07;151504.38;;;9.76;100.00
54503;BME280;40411;50.090;21.954;2022-09-20T01:45:44;151544.03;;;9.92;100.00
54503;BME280;40411;50.090;21.954;2022-09-20T01:59:12;151518.44;;;9.82;100.00
54503;BME280;40411;50.090;21.954;2022-09-20T02:12:52;151547.84;;;9.94;100.00
54503;BME280;40411;50.090;21.954;2022-09-20T02:18:36;151514.59;;;9.80;100.00
54503;BME280;40411;50.090;21.954;2022-09-20T02:23:59;151513.31;;;9.80;100.00
54503;BME280;40411;50.090;21.954;2022-09-20T02:26:38;151523.56;;;9.84;100.00
54503;BME280;40411;50.090;21.954;2022-09-20T02:32:10;151419.97;;;9.43;100.00
54503;BME280;40411;50.090;21.954;2022-09-20T02:42:58;151416.13;;;9.41;100.00
54503;BME280;40411;50.090;21.954;2022-09-20T02:45:35;151421.25;;;9.43;100.00
54503;BME280;40411;50.090;21.954;2022-09-20T02:48:04;151419.97;;;9.43;100.00
54503;BME280;40411;50.090;21.954;2022-09-20T02:50:55;151405.91;;;9.37;100.00
54503;BME280;40411;50.090;21.954;2022-09-20T02:53:45;151381.59;;;9.27;100.00
54503;BME280;40411;50.090;21.954;2022-09-20T02:59:04;151499.25;;;9.74;100.00
54503;BME280;40411;50.090;21.954;2022-09-20T03:10:01;151514.59;;;9.80;100.00
54503;BME280;40411;50.090;21.954;2022-09-20T03:18:23;151497.97;;;9.74;100.00
54503;BME280;40411;50.090;21.954;2022-09-20T03:37:33;151599.06;;;10.14;100.00
54503;BME280;40411;50.090;21.954;2022-09-20T03:42:45;151596.47;;;10.13;100.00
54503;BME280;40411;50.090;21.954;2022-09-20T04:10:18;151637.47;;;10.29;100.00
54503;BME280;40411;50.090;21.954;2022-09-20T04:21:56;151583.66;;;10.08;100.00
54503;BME280;40411;50.090;21.954;2022-09-20T04:26:59;151528.66;;;9.86;100.00
54503;BME280;40411;50.090;21.954;2022-09-20T04:34:50;151600.34;;;10.15;100.00
54503;BME280;40411;50.090;21.954;2022-09-20T04:37:38;151565.78;;;10.01;100.00
54503;BME280;40411;50.090;21.954;2022-09-20T04:40:19;151540.19;;;9.91;100.00
54503;BME280;40411;50.090;21.954;2022-09-20T04:48:30;151622.06;;;10.23;100.00
54503;BME280;40411;50.090;21.954;2022-09-20T04:56:43;151597.75;;;10.14;100.00
54503;BME280;40411;50.090;21.954;2022-09-20T05:13:47;151578.59;;;10.06;100.00
54503;BME280;40411;50.090;21.954;2022-09-20T05:24:33;151583.66;;;10.08;100.00
54503;BME280;40411;50.090;21.954;2022-09-20T05:29:50;151565.78;;;10.01;100.00
54503;BME280;40411;50.090;21.954;2022-09-20T05:35:22;151641.31;;;10.31;100.00
54503;BME280;40411;50.090;21.954;2022-09-20T05:38:11;151698.91;;;10.54;100.00
54503;BME280;40411;50.090;21.954;2022-09-20T05:41:05;151757.75;;;10.78;100.00
54503;BME280;40411;50.090;21.954;2022-09-20T05:43:46;151672.00;;;10.43;100.00
54503;BME280;40411;50.090;21.954;2022-09-20T05:46:34;151736.00;;;10.69;100.00
54503;BME280;40411;50.090;21.954;2022-09-20T06:00:05;151709.13;;;10.58;100.00
54503;BME280;40411;50.090;21.954;2022-09-20T06:02:45;151711.69;;;10.59;100.00
54503;BME280;40411;50.090;21.954;2022-09-20T06:13:44;151793.59;;;10.92;100.00
54503;BME280;40411;50.090;21.954;2022-09-20T06:16:45;151803.84;;;10.96;100.00
54503;BME280;40411;50.090;21.954;2022-09-20T06:21:52;151835.88;;;11.09;100.00
54503;BME280;40411;50.090;21.954;2022-09-20T06:24:39;151933.13;;;11.48;100.00
54503;BME280;40411;50.090;21.954;2022-09-20T06:27:12;151903.69;;;11.36;100.00
54503;BME280;40411;50.090;21.954;2022-09-20T06:29:43;151858.91;;;11.18;100.00
54503;BME280;40411;50.090;21.954;2022-09-20T06:32:15;151875.53;;;11.25;100.00
54503;BME280;40411;50.090;21.954;2022-09-20T06:34:42;151904.97;;;11.36;100.00
54503;BME280;40411;50.090;21.954;2022-09-20T06:37:43;151858.91;;;11.18;100.00
54503;BME280;40411;50.090;21.954;2022-09-20T06:40:41;151861.44;;;11.19;100.00
54503;BME280;40411;50.090;21.954;2022-09-20T06:43:28;151851.22;;;11.15;100.00
54503;BME280;40411;50.090;21.954;2022-09-20T06:45:56;151840.97;;;11.11;100.00
54503;BME280;40411;50.090;21.954;2022-09-20T06:48:22;151814.06;;;11.00;100.00
54503;BME280;40411;50.090;21.954;2022-09-20T06:50:50;151829.47;;;11.06;100.00
54503;BME280;40411;50.090;21.954;2022-09-20T06:53:23;151862.72;;;11.19;100.00
54503;BME280;40411;50.090;21.954;2022-09-20T06:55:50;151872.97;;;11.24;100.00
54503;BME280;40411;50.090;21.954;2022-09-20T06:58:17;151844.81;;;11.12;100.00
54503;BME280;40411;50.090;21.954;2022-09-20T07:00:43;151879.38;;;11.26;100.00
54503;BME280;40411;50.090;21.954;2022-09-20T07:03:08;151880.66;;;11.27;100.00
54503;BME280;40411;50.090;21.954;2022-09-20T07:05:37;151879.38;;;11.26;100.00
54503;BME280;40411;50.090;21.954;2022-09-20T07:08:03;151896.03;;;11.33;100.00
54503;BME280;40411;50.090;21.954;2022-09-20T07:10:29;151911.38;;;11.39;100.00
54503;BME280;40411;50.090;21.954;2022-09-20T07:12:58;151938.28;;;11.50;100.00
54503;BME280;40411;50.090;21.954;2022-09-20T07:15:26;151983.13;;;11.68;100.00
54503;BME280;40411;50.090;21.954;2022-09-20T07:17:54;151942.13;;;11.51;100.00
54503;BME280;40411;50.090;21.954;2022-09-20T07:20:20;151976.72;;;11.65;100.00
54503;BME280;40411;50.090;21.954;2022-09-20T07:22:46;151993.34;;;11.72;100.00
54503;BME280;40411;50.090;21.954;2022-09-20T07:25:13;152026.66;;;11.85;100.00
54503;BME280;40411;50.090;21.954;2022-09-20T07:27:39;152054.88;;;11.96;100.00
54503;BME280;40411;50.090;21.954;2022-09-20T07:30:06;152102.28;;;12.15;100.00
54503;BME280;40411;50.090;21.954;2022-09-20T07:32:32;152113.78;;;12.20;100.00
54503;BME280;40411;50.090;21.954;2022-09-20T07:34:59;152211.19;;;12.59;100.00
54503;BME280;40411;50.090;21.954;2022-09-20T07:37:26;152198.34;;;12.53;100.00
54503;BME280;40411;50.090;21.954;2022-09-20T07:39:51;152065.13;;;12.00;100.00
54503;BME280;40411;50.090;21.954;2022-09-20T07:42:17;152067.69;;;12.01;100.00
54503;BME280;40411;50.090;21.954;2022-09-20T07:44:43;152106.13;;;12.17;100.00
54503;BME280;40411;50.090;21.954;2022-09-20T07:47:09;152131.75;;;12.27;100.00
54503;BME280;40411;50.090;21.954;2022-09-20T07:49:35;152213.78;;;12.60;100.00
54503;BME280;40411;50.090;21.954;2022-09-20T07:52:03;152159.94;;;12.38;100.00
54503;BME280;40411;50.090;21.954;2022-09-20T07:54:29;152295.75;;;12.92;100.00
54503;BME280;40411;50.090;21.954;2022-09-20T07:56:54;152284.25;;;12.88;100.00
54503;BME280;40411;50.090;21.954;2022-09-20T07:59:21;152258.59;;;12.78;100.00
54503;BME280;40411;50.090;21.954;2022-09-20T08:01:46;152268.88;;;12.82;100.00
54503;BME280;40411;50.090;21.954;2022-09-20T08:04:12;152257.34;;;12.77;100.00
54503;BME280;40411;50.090;21.954;2022-09-20T08:06:41;152154.81;;;12.36;100.00
54503;BME280;40411;50.090;21.954;2022-09-20T08:09:08;152190.66;;;12.50;100.00
54503;BME280;40411;50.090;21.954;2022-09-20T08:11:35;152139.44;;;12.30;100.00
54503;BME280;40411;50.090;21.954;2022-09-20T08:14:01;152139.44;;;12.30;100.00
54503;BME280;40411;50.090;21.954;2022-09-20T08:16:28;152133.03;;;12.27;100.00
54503;BME280;40411;50.090;21.954;2022-09-20T08:18:56;152172.75;;;12.43;100.00
54503;BME280;40411;50.090;21.954;2022-09-20T08:21:27;152241.97;;;12.71;100.00
54503;BME280;40411;50.090;21.954;2022-09-20T08:23:53;152206.09;;;12.57;100.00
54503;BME280;40411;50.090;21.954;2022-09-20T08:26:21;152224.00;;;12.64;100.00
54503;BME280;40411;50.090;21.954;2022-09-20T08:28:57;152165.06;;;12.40;100.00
54503;BME280;40411;50.090;21.954;2022-09-20T08:31:25;152075.38;;;12.04;100.00
54503;BME280;40411;50.090;21.954;2022-09-20T08:33:52;152099.69;;;12.14;100.00
54503;BME280;40411;50.090;21.954;2022-09-20T08:36:23;152193.25;;;12.51;100.00
54503;BME280;40411;50.090;21.954;2022-09-20T08:38:51;152203.50;;;12.56;100.00
54503;BME280;40411;50.090;21.954;2022-09-20T08:41:31;152306.03;;;12.96;100.00
54503;BME280;40411;50.090;21.954;2022-09-20T08:47:20;152320.13;;;13.02;100.00
54503;BME280;40411;50.090;21.954;2022-09-20T08:49:48;152300.91;;;12.94;100.00
54503;BME280;40411;50.090;21.954;2022-09-20T08:52:18;152341.94;;;13.11;100.00
54503;BME280;40411;50.090;21.954;2022-09-20T08:54:46;152293.22;;;12.91;100.00
54503;BME280;40411;50.090;21.954;2022-09-20T08:57:14;152257.34;;;12.77;100.00
54503;BME280;40411;50.090;21.954;2022-09-20T08:59:42;152362.44;;;13.19;100.00
54503;BME280;40411;50.090;21.954;2022-09-20T09:02:20;152336.78;;;13.09;100.00
54503;BME280;40411;50.090;21.954;2022-09-20T09:04:47;152350.88;;;13.14;100.00
54503;BME280;40411;50.090;21.954;2022-09-20T09:07:15;152380.47;;;13.26;100.00
54503;BME280;40411;50.090;21.954;2022-09-20T09:09:43;152289.41;;;12.90;100.00
54503;BME280;40411;50.090;21.954;2022-09-20T09:12:18;152285.53;;;12.88;100.00
54503;BME280;40411;50.090;21.954;2022-09-20T09:14:45;152379.16;;;13.26;100.00
54503;BME280;40411;50.090;21.954;2022-09-20T09:17:26;152375.28;;;13.24;100.00
54503;BME280;40411;50.090;21.954;2022-09-20T09:19:56;152329.09;;;13.06;100.00
54503;BME280;40411;50.090;21.954;2022-09-20T09:30:39;152320.13;;;13.02;100.00
54503;BME280;40411;50.090;21.954;2022-09-20T09:33:25;152318.88;;;13.02;100.00
54503;BME280;40411;50.090;21.954;2022-09-20T09:36:10;152322.69;;;13.03;100.00
54503;BME280;40411;50.090;21.954;2022-09-20T09:38:42;152327.81;;;13.05;100.00
54503;BME280;40411;50.090;21.954;2022-09-20T09:44:05;152329.09;;;13.06;100.00
54503;BME280;40411;50.090;21.954;2022-09-20T09:46:36;152377.81;;;13.25;100.00
54503;BME280;40411;50.090;21.954;2022-09-20T09:49:14;152572.81;;;14.03;100.00
54503;BME280;40411;50.090;21.954;2022-09-20T09:52:05;152660.06;;;14.38;100.00
54503;BME280;40411;50.090;21.954;2022-09-20T09:54:35;152792.25;;;14.90;100.00
54503;BME280;40411;50.090;21.954;2022-09-20T10:00:08;152850.03;;;15.13;100.00
54503;BME280;40411;50.090;21.954;2022-09-20T10:05:57;152802.53;;;14.94;100.00
54503;BME280;40411;50.090;21.954;2022-09-20T10:16:48;152767.88;;;14.81;100.00
54503;BME280;40411;50.090;21.954;2022-09-20T10:36:09;152855.13;;;15.15;100.00
54503;BME280;40411;50.090;21.954;2022-09-20T10:38:54;153024.69;;;15.83;100.00
54503;BME280;40411;50.090;21.954;2022-09-20T10:47:18;153315.06;;;16.98;100.00
54503;BME280;40411;50.090;21.954;2022-09-20T10:53:02;153298.38;;;16.92;100.00
54503;BME280;40411;50.090;21.954;2022-09-20T11:07:15;153343.34;;;17.10;100.00
54503;BME280;40411;50.090;21.954;2022-09-20T11:09:50;153780.69;;;18.84;97.35
54503;BME280;40411;50.090;21.954;2022-09-20T11:12:39;153597.97;;;18.11;92.73
54503;BME280;40411;50.090;21.954;2022-09-20T11:20:28;153671.28;;;18.40;94.91
54503;BME280;40411;50.090;21.954;2022-09-20T11:26:47;153747.19;;;18.70;94.05
54503;BME280;40411;50.090;21.954;2022-09-20T11:31:47;153397.34;;;17.31;96.52
54503;BME280;40411;50.090;21.954;2022-09-20T11:34:32;153906.78;;;19.34;91.26
54503;BME280;40411;50.090;21.954;2022-09-20T11:37:01;153518.22;;;17.79;92.19
54503;BME280;40411;50.090;21.954;2022-09-20T11:39:43;153381.91;;;17.25;95.99
54503;BME280;40411;50.090;21.954;2022-09-20T11:42:18;153515.66;;;17.78;97.68
54503;BME280;40411;50.090;21.954;2022-09-20T11:44:45;153955.69;;;19.53;87.15
54503;BME280;40411;50.090;21.954;2022-09-20T11:47:23;153954.38;;;19.53;79.93
54503;BME280;40411;50.090;21.954;2022-09-20T11:56:14;153262.41;;;16.78;95.38
54503;BME280;40411;50.090;21.954;2022-09-20T11:58:45;153014.41;;;15.79;97.90
54503;BME280;40411;50.090;21.954;2022-09-20T12:01:20;153219.97;;;16.61;92.54
54503;BME280;40411;50.090;21.954;2022-09-20T12:03:52;153671.28;;;18.40;87.29
54503;BME280;40411;50.090;21.954;2022-09-20T12:07:05;153519.50;;;17.80;89.80
54503;BME280;40411;50.090;21.954;2022-09-20T12:09:40;153538.78;;;17.88;89.21
54503;BME280;40411;50.090;21.954;2022-09-20T12:15:25;153258.47;;;16.76;91.27
54503;BME280;40411;50.090;21.954;2022-09-20T12:28:57;153023.44;;;15.82;97.70
54503;BME280;40411;50.090;21.954;2022-09-20T12:36:39;152580.50;;;14.06;100.00
54503;BME280;40411;50.090;21.954;2022-09-20T13:05:42;152435.56;;;13.48;100.00
54503;BME280;40411;50.090;21.954;2022-09-20T13:08:26;152648.50;;;14.33;100.00
54503;BME280;40411;50.090;21.954;2022-09-20T13:11:12;153085.03;;;16.07;100.00
54503;BME280;40411;50.090;21.954;2022-09-20T13:13:55;153304.81;;;16.94;97.78
54503;BME280;40411;50.090;21.954;2022-09-20T13:16:31;153397.34;;;17.31;94.02
54503;BME280;40411;50.090;21.954;2022-09-20T13:24:18;152778.13;;;14.85;100.00
54503;BME280;40411;50.090;21.954;2022-09-20T13:26:48;152797.38;;;14.92;100.00
54503;BME280;40411;50.090;21.954;2022-09-20T13:29:38;152952.72;;;15.54;100.00
54503;BME280;40411;50.090;21.954;2022-09-20T13:32:17;153010.56;;;15.77;99.88
54503;BME280;40411;50.090;21.954;2022-09-20T13:34:43;153252.06;;;16.73;98.49
54503;BME280;40411;50.090;21.954;2022-09-20T13:37:17;153379.31;;;17.24;91.25
54503;BME280;40411;50.090;21.954;2022-09-20T13:39:54;153333.09;;;17.06;96.07
54503;BME280;40411;50.090;21.954;2022-09-20T13:42:20;153291.94;;;16.89;93.68
54503;BME280;40411;50.090;21.954;2022-09-20T13:44:47;153257.22;;;16.75;92.91
54503;BME280;40411;50.090;21.954;2022-09-20T13:47:27;153261.13;;;16.77;92.01
54503;BME280;40411;50.090;21.954;2022-09-20T13:50:08;153137.72;;;16.28;94.07
54503;BME280;40411;50.090;21.954;2022-09-20T13:52:44;153149.31;;;16.33;90.68
54503;BME280;40411;50.090;21.954;2022-09-20T13:55:34;153123.59;;;16.22;92.92
54503;BME280;40411;50.090;21.954;2022-09-20T13:58:02;153149.31;;;16.33;98.41
54503;BME280;40411;50.090;21.954;2022-09-20T14:00:30;153130.03;;;16.25;96.20
54503;BME280;40411;50.090;21.954;2022-09-20T14:02:57;153022.09;;;15.82;94.92
54503;BME280;40411;50.090;21.954;2022-09-20T14:05:25;152950.16;;;15.53;96.70
54503;BME280;40411;50.090;21.954;2022-09-20T14:07:53;152934.75;;;15.47;97.21
54503;BME280;40411;50.090;21.954;2022-09-20T14:10:39;153041.38;;;15.90;100.00
54503;BME280;40411;50.090;21.954;2022-09-20T14:13:14;153095.34;;;16.11;99.39
54503;BME280;40411;50.090;21.954;2022-09-20T14:15:43;153169.81;;;16.41;98.27
54503;BME280;40411;50.090;21.954;2022-09-20T14:18:15;153155.69;;;16.35;90.43
54503;BME280;40411;50.090;21.954;2022-09-20T14:20:42;153181.38;;;16.45;91.43
54503;BME280;40411;50.090;21.954;2022-09-20T14:23:24;153208.38;;;16.56;91.97
54503;BME280;40411;50.090;21.954;2022-09-20T14:26:29;153146.69;;;16.31;91.49
54503;BME280;40411;50.090;21.954;2022-09-20T14:28:54;153118.44;;;16.20;91.90
54503;BME280;40411;50.090;21.954;2022-09-20T14:31:28;153031.13;;;15.85;95.08
54503;BME280;40411;50.090;21.954;2022-09-20T14:33:59;152892.41;;;15.30;96.09
54503;BME280;40411;50.090;21.954;2022-09-20T14:36:27;152847.44;;;15.12;98.88
54503;BME280;40411;50.090;21.954;2022-09-20T14:38:55;152814.09;;;14.99;98.61
54503;BME280;40411;50.090;21.954;2022-09-20T14:41:27;152747.34;;;14.72;100.00
54503;BME280;40411;50.090;21.954;2022-09-20T14:43:58;152757.63;;;14.77;100.00
54503;BME280;40411;50.090;21.954;2022-09-20T14:46:34;152780.72;;;14.86;100.00
54503;BME280;40411;50.090;21.954;2022-09-20T14:57:39;152134.28;;;12.28;100.00
54503;BME280;40411;50.090;21.954;2022-09-20T15:00:11;152097.16;;;12.13;100.00
54503;BME280;40411;50.090;21.954;2022-09-20T15:02:41;152144.56;;;12.32;100.00
54503;BME280;40411;50.090;21.954;2022-09-20T15:05:23;152184.25;;;12.48;100.00
54503;BME280;40411;50.090;21.954;2022-09-20T15:07:55;152229.13;;;12.66;100.00
54503;BME280;40411;50.090;21.954;2022-09-20T15:10:22;152293.22;;;12.91;100.00
54503;BME280;40411;50.090;21.954;2022-09-20T15:12:48;152306.03;;;12.96;100.00
54503;BME280;40411;50.090;21.954;2022-09-20T15:15:16;152426.59;;;13.45;100.00
54503;BME280;40411;50.090;21.954;2022-09-20T15:17:44;152452.25;;;13.55;100.00
54503;BME280;40411;50.090;21.954;2022-09-20T15:20:16;152533.03;;;13.87;100.00
54503;BME280;40411;50.090;21.954;2022-09-20T15:22:43;152513.81;;;13.79;100.00
54503;BME280;40411;50.090;21.954;2022-09-20T15:25:14;152576.66;;;14.04;100.00
54503;BME280;40411;50.090;21.954;2022-09-20T15:27:41;152444.56;;;13.52;100.00
54503;BME280;40411;50.090;21.954;2022-09-20T15:30:10;152489.44;;;13.70;100.00
54503;BME280;40411;50.090;21.954;2022-09-20T15:32:37;152483.00;;;13.67;100.00
54503;BME280;40411;50.090;21.954;2022-09-20T15:35:04;152439.41;;;13.50;100.00
54503;BME280;40411;50.090;21.954;2022-09-20T15:37:30;152447.13;;;13.53;100.00
54503;BME280;40411;50.090;21.954;2022-09-20T15:39:56;152406.06;;;13.36;100.00
54503;BME280;40411;50.090;21.954;2022-09-20T15:42:25;152363.72;;;13.19;100.00
54503;BME280;40411;50.090;21.954;2022-09-20T15:44:51;152307.31;;;12.97;100.00
54503;BME280;40411;50.090;21.954;2022-09-20T15:47:17;152249.66;;;12.74;100.00
54503;BME280;40411;50.090;21.954;2022-09-20T15:49:43;152272.69;;;12.83;100.00
54503;BME280;40411;50.090;21.954;2022-09-20T15:52:12;152299.63;;;12.94;100.00
54503;BME280;40411;50.090;21.954;2022-09-20T15:54:38;152288.06;;;12.89;100.00
54503;BME280;40411;50.090;21.954;2022-09-20T15:57:04;152247.06;;;12.73;100.00
54503;BME280;40411;50.090;21.954;2022-09-20T15:59:30;152220.19;;;12.62;100.00
54503;BME280;40411;50.090;21.954;2022-09-20T16:01:59;152189.41;;;12.50;100.00
54503;BME280;40411;50.090;21.954;2022-09-20T16:04:25;152157.41;;;12.37;100.00
54503;BME280;40411;50.090;21.954;2022-09-20T16:06:52;152140.69;;;12.30;100.00
54503;BME280;40411;50.090;21.954;2022-09-20T16:09:18;152130.47;;;12.26;100.00
54503;BME280;40411;50.090;21.954;2022-09-20T16:11:45;152044.59;;;11.92;100.00
54503;BME280;40411;50.090;21.954;2022-09-20T16:14:12;152058.69;;;11.98;100.00
54503;BME280;40411;50.090;21.954;2022-09-20T16:16:37;152031.84;;;11.87;100.00
54503;BME280;40411;50.090;21.954;2022-09-20T16:19:03;152011.31;;;11.79;100.00
54503;BME280;40411;50.090;21.954;2022-09-20T16:21:56;151980.53;;;11.67;100.00
54503;BME280;40411;50.090;21.954;2022-09-20T16:24:32;151984.38;;;11.68;100.00
54503;BME280;40411;50.090;21.954;2022-09-20T16:26:59;151984.38;;;11.68;100.00
54503;BME280;40411;50.090;21.954;2022-09-20T16:29:26;151957.50;;;11.57;100.00
54503;BME280;40411;50.090;21.954;2022-09-20T16:31:54;151949.81;;;11.54;100.00
54503;BME280;40411;50.090;21.954;2022-09-20T16:34:28;151928.06;;;11.46;100.00
54503;BME280;40411;50.090;21.954;2022-09-20T16:39:27;151844.81;;;11.12;100.00
54503;BME280;40411;50.090;21.954;2022-09-20T16:41:55;151860.16;;;11.18;100.00
54503;BME280;40411;50.090;21.954;2022-09-20T16:44:22;151819.19;;;11.02;100.00
54503;BME280;40411;50.090;21.954;2022-09-20T16:46:48;151802.56;;;10.95;100.00
54503;BME280;40411;50.090;21.954;2022-09-20T16:49:15;151852.50;;;11.15;100.00
54503;BME280;40411;50.090;21.954;2022-09-20T16:51:42;151867.84;;;11.22;100.00
54503;BME280;40411;50.090;21.954;2022-09-20T16:54:11;151852.50;;;11.15;100.00
54503;BME280;40411;50.090;21.954;2022-09-20T16:56:43;151857.63;;;11.17;100.00
54503;BME280;40411;50.090;21.954;2022-09-20T16:59:10;151864.03;;;11.20;100.00
54503;BME280;40411;50.090;21.954;2022-09-20T17:01:38;151839.69;;;11.10;100.00
54503;BME280;40411;50.090;21.954;2022-09-20T17:04:04;151826.88;;;11.05;100.00
54503;BME280;40411;50.090;21.954;2022-09-20T17:06:32;151880.66;;;11.27;100.00
54503;BME280;40411;50.090;21.954;2022-09-20T17:08:59;151878.13;;;11.26;100.00
54503;BME280;40411;50.090;21.954;2022-09-20T17:11:31;151885.81;;;11.29;100.00
54503;BME280;40411;50.090;21.954;2022-09-20T17:13:57;151825.59;;;11.05;100.00
54503;BME280;40411;50.090;21.954;2022-09-20T17:16:29;151835.88;;;11.09;100.00
54503;BME280;40411;50.090;21.954;2022-09-20T17:18:57;151857.63;;;11.17;100.00
54503;BME280;40411;50.090;21.954;2022-09-20T17:21:25;151902.41;;;11.35;100.00
54503;BME280;40411;50.090;21.954;2022-09-20T17:23:54;151851.22;;;11.15;100.00
54503;BME280;40411;50.090;21.954;2022-09-20T17:28:49;151798.72;;;10.94;100.00
54503;BME280;40411;50.090;21.954;2022-09-20T17:31:18;151801.31;;;10.95;100.00
54503;BME280;40411;50.090;21.954;2022-09-20T17:33:45;151817.94;;;11.02;100.00
54503;BME280;40411;50.090;21.954;2022-09-20T17:36:13;151783.38;;;10.88;100.00
54503;BME280;40411;50.090;21.954;2022-09-20T17:38:40;151819.19;;;11.02;100.00
54503;BME280;40411;50.090;21.954;2022-09-20T17:41:14;151857.63;;;11.17;100.00
54503;BME280;40411;50.090;21.954;2022-09-20T17:43:41;151843.56;;;11.12;100.00
54503;BME280;40411;50.090;21.954;2022-09-20T17:48:41;151844.81;;;11.12;100.00
54503;BME280;40411;50.090;21.954;2022-09-20T17:51:09;151834.56;;;11.08;100.00
54503;BME280;40411;50.090;21.954;2022-09-20T17:53:36;151812.78;;;11.00;100.00
54503;BME280;40411;50.090;21.954;2022-09-20T17:56:02;151796.19;;;10.93;100.00
54503;BME280;40411;50.090;21.954;2022-09-20T17:58:28;151806.38;;;10.97;100.00
54503;BME280;40411;50.090;21.954;2022-09-20T18:01:01;151806.38;;;10.97;100.00
54503;BME280;40411;50.090;21.954;2022-09-20T18:03:27;151806.38;;;10.97;100.00
54503;BME280;40411;50.090;21.954;2022-09-20T18:05:53;151769.28;;;10.82;100.00
54503;BME280;40411;50.090;21.954;2022-09-20T18:08:19;151757.75;;;10.78;100.00
54503;BME280;40411;50.090;21.954;2022-09-20T18:10:56;151752.66;;;10.76;100.00
54503;BME280;40411;50.090;21.954;2022-09-20T18:13:23;151742.41;;;10.71;100.00
54503;BME280;40411;50.090;21.954;2022-09-20T18:15:52;151756.47;;;10.77;100.00
54503;BME280;40411;50.090;21.954;2022-09-20T18:18:19;151782.09;;;10.87;100.00
54503;BME280;40411;50.090;21.954;2022-09-20T18:20:45;151784.63;;;10.88;100.00
54503;BME280;40411;50.090;21.954;2022-09-20T18:23:11;151779.50;;;10.86;100.00
54503;BME280;40411;50.090;21.954;2022-09-20T18:25:37;151796.19;;;10.93;100.00
54503;BME280;40411;50.090;21.954;2022-09-20T18:28:21;151794.91;;;10.92;100.00
54503;BME280;40411;50.090;21.954;2022-09-20T18:30:47;151796.19;;;10.93;100.00
54503;BME280;40411;50.090;21.954;2022-09-20T18:33:16;151744.94;;;10.72;100.00
54503;BME280;40411;50.090;21.954;2022-09-20T18:35:42;151757.75;;;10.78;100.00